createdAt,value
2017-08-31T00:00:31.878Z,994.38
2017-08-31T00:01:41.907Z,994.34
2017-08-31T00:02:52.256Z,994.39
2017-08-31T00:04:02.613Z,994.36
2017-08-31T00:05:12.969Z,994.38
2017-08-31T00:06:23.303Z,994.35
2017-08-31T00:07:34.951Z,994.34
2017-08-31T00:08:45.320Z,994.36
2017-08-31T00:09:55.662Z,994.34
2017-08-31T00:11:05.736Z,994.33
2017-08-31T00:12:15.451Z,994.31
2017-08-31T00:13:25.477Z,994.3
2017-08-31T00:14:35.505Z,994.32
2017-08-31T00:15:45.851Z,994.32
2017-08-31T00:16:56.202Z,994.3
2017-08-31T00:18:06.543Z,994.3
2017-08-31T00:19:16.936Z,994.27
2017-08-31T00:20:27.261Z,994.25
2017-08-31T00:21:37.604Z,994.22
2017-08-31T00:22:47.627Z,994.22
2017-08-31T00:23:57.968Z,994.26
2017-08-31T00:25:08.342Z,994.26
2017-08-31T00:26:18.689Z,994.26
2017-08-31T00:27:29.105Z,994.25
2017-08-31T00:28:39.214Z,994.28
2017-08-31T00:29:49.554Z,994.3
2017-08-31T00:30:59.895Z,994.29
2017-08-31T00:32:10.237Z,994.27
2017-08-31T00:33:20.574Z,994.28
2017-08-31T00:34:30.927Z,994.23
2017-08-31T00:35:40.996Z,994.17
2017-08-31T00:36:51.017Z,994.2
2017-08-31T00:38:01.360Z,994.17
2017-08-31T00:39:11.691Z,994.15
2017-08-31T00:40:21.729Z,994.17
2017-08-31T00:41:31.753Z,994.22
2017-08-31T00:42:42.093Z,994.24
2017-08-31T00:43:52.112Z,994.22
2017-08-31T00:45:02.176Z,994.21
2017-08-31T00:46:12.526Z,994.17
2017-08-31T00:47:22.865Z,994.17
2017-08-31T00:48:32.895Z,994.14
2017-08-31T00:49:43.303Z,994.18
2017-08-31T00:50:53.696Z,994.19
2017-08-31T00:52:04.037Z,994.17
2017-08-31T00:53:14.373Z,994.17
2017-08-31T00:54:24.717Z,994.2
2017-08-31T00:55:35.857Z,994.21
2017-08-31T00:56:46.243Z,994.24
2017-08-31T00:57:56.275Z,994.24
2017-08-31T00:59:06.632Z,994.23
2017-08-31T01:00:16.669Z,994.25
2017-08-31T01:01:27.015Z,994.26
2017-08-31T01:02:37.413Z,994.27
2017-08-31T01:03:47.742Z,994.27
2017-08-31T01:04:58.104Z,994.25
2017-08-31T01:06:08.482Z,994.26
2017-08-31T01:07:18.516Z,994.24
2017-08-31T01:08:28.551Z,994.25
2017-08-31T01:09:38.899Z,994.25
2017-08-31T01:10:48.935Z,994.25
2017-08-31T01:12:01.032Z,994.2
2017-08-31T01:13:11.425Z,994.19
2017-08-31T01:14:22.066Z,994.19
2017-08-31T01:15:32.402Z,994.22
2017-08-31T01:16:42.740Z,994.16
2017-08-31T01:17:52.773Z,994.19
2017-08-31T01:19:02.823Z,994.15
2017-08-31T01:20:13.176Z,994.15
2017-08-31T01:21:23.549Z,994.12
2017-08-31T01:22:33.582Z,994.17
2017-08-31T01:23:43.289Z,994.2
2017-08-31T01:24:53.638Z,994.16
2017-08-31T01:26:03.968Z,994.2
2017-08-31T01:27:14.051Z,994.26
2017-08-31T01:28:24.084Z,994.24
2017-08-31T01:29:34.421Z,994.22
2017-08-31T01:30:44.485Z,994.2
2017-08-31T01:31:54.513Z,994.16
2017-08-31T01:33:04.849Z,994.16
2017-08-31T01:34:15.183Z,994.12
2017-08-31T01:35:25.524Z,994.11
2017-08-31T01:36:35.860Z,994.07
2017-08-31T01:37:45.892Z,994.04
2017-08-31T01:38:55.973Z,994.08
2017-08-31T01:40:05.361Z,994.13
2017-08-31T01:41:15.716Z,994.12
2017-08-31T01:42:25.733Z,994.14
2017-08-31T01:43:35.759Z,994.17
2017-08-31T01:44:45.784Z,994.16
2017-08-31T01:45:55.818Z,994.14
2017-08-31T01:47:06.159Z,994.15
2017-08-31T01:48:16.496Z,994.08
2017-08-31T01:49:26.533Z,994.1
2017-08-31T01:50:36.571Z,994.11
2017-08-31T01:51:46.584Z,994.09
2017-08-31T01:52:56.601Z,994.12
2017-08-31T01:54:06.951Z,994.13
2017-08-31T01:55:17.303Z,994.12
2017-08-31T01:56:27.729Z,994.11
2017-08-31T01:57:38.056Z,994.05
2017-08-31T01:58:47.768Z,994.06
2017-08-31T01:59:58.105Z,993.98
2017-08-31T02:01:08.456Z,993.99
2017-08-31T02:02:18.868Z,993.99
2017-08-31T02:03:29.214Z,994.02
2017-08-31T02:04:39.557Z,994.04
2017-08-31T02:05:49.891Z,994.01
2017-08-31T02:07:00.260Z,994.03
2017-08-31T02:08:10.652Z,994.01
2017-08-31T02:09:20.994Z,993.98
2017-08-31T02:10:31.325Z,993.98
2017-08-31T02:11:41.347Z,993.99
2017-08-31T02:12:51.370Z,993.96
2017-08-31T02:14:01.759Z,993.92
2017-08-31T02:15:12.096Z,993.98
2017-08-31T02:16:22.445Z,993.98
2017-08-31T02:17:32.789Z,994.01
2017-08-31T02:18:43.123Z,994.01
2017-08-31T02:19:53.469Z,994
2017-08-31T02:21:03.800Z,994.04
2017-08-31T02:22:14.158Z,994.05
2017-08-31T02:23:23.859Z,994.03
2017-08-31T02:24:34.212Z,994.03
2017-08-31T02:25:44.235Z,994.04
2017-08-31T02:26:54.247Z,994.05
2017-08-31T02:28:04.587Z,994.03
2017-08-31T02:29:14.938Z,994.05
2017-08-31T02:30:24.977Z,994
2017-08-31T02:31:35.366Z,994.02
2017-08-31T02:32:45.686Z,994.02
2017-08-31T02:33:55.405Z,994.03
2017-08-31T02:35:05.773Z,993.99
2017-08-31T02:36:16.111Z,994
2017-08-31T02:37:26.503Z,993.96
2017-08-31T02:38:36.841Z,993.98
2017-08-31T02:39:47.191Z,993.93
2017-08-31T02:40:57.206Z,993.91
2017-08-31T02:42:07.269Z,993.9
2017-08-31T02:43:17.618Z,993.94
2017-08-31T02:44:27.954Z,993.98
2017-08-31T02:45:38.312Z,993.96
2017-08-31T02:46:48.666Z,993.98
2017-08-31T02:47:58.690Z,994.01
2017-08-31T02:49:09.119Z,994.09
2017-08-31T02:50:19.501Z,994.08
2017-08-31T02:51:29.873Z,994.12
2017-08-31T02:52:40.203Z,994.13
2017-08-31T02:53:50.551Z,994.16
2017-08-31T02:55:00.635Z,994.16
2017-08-31T02:56:10.999Z,994.17
2017-08-31T02:57:21.333Z,994.23
2017-08-31T02:58:31.723Z,994.23
2017-08-31T02:59:42.080Z,994.22
2017-08-31T03:00:52.482Z,994.24
2017-08-31T03:33:07.650Z,994.44
2017-08-31T03:34:17.979Z,994.49
2017-08-31T03:35:27.995Z,994.49
2017-08-31T03:36:38.333Z,994.5
2017-08-31T03:37:48.673Z,994.5
2017-08-31T03:38:58.746Z,994.48
2017-08-31T03:40:09.068Z,994.47
2017-08-31T03:41:19.413Z,994.43
2017-08-31T03:42:29.433Z,994.39
2017-08-31T03:43:39.766Z,994.46
2017-08-31T03:44:50.114Z,994.4
2017-08-31T03:46:00.141Z,994.41
2017-08-31T03:47:10.500Z,994.4
2017-08-31T03:48:20.841Z,994.39
2017-08-31T03:49:31.181Z,994.46
2017-08-31T03:50:40.938Z,994.43
2017-08-31T03:51:51.269Z,994.48
2017-08-31T03:53:01.622Z,994.51
2017-08-31T03:54:11.978Z,994.51
2017-08-31T03:55:22.330Z,994.57
2017-08-31T03:56:32.726Z,994.56
2017-08-31T03:57:43.067Z,994.59
2017-08-31T03:58:53.094Z,994.64
2017-08-31T04:00:03.114Z,994.63
2017-08-31T04:01:13.139Z,994.64
2017-08-31T04:02:23.545Z,994.75
2017-08-31T04:03:33.572Z,994.75
2017-08-31T04:04:44.164Z,994.8
2017-08-31T04:05:54.514Z,994.81
2017-08-31T04:07:04.854Z,994.84
2017-08-31T04:08:15.189Z,994.85
2017-08-31T04:09:25.232Z,994.84
2017-08-31T04:10:35.273Z,994.79
2017-08-31T04:11:45.645Z,994.79
2017-08-31T04:12:55.996Z,994.82
2017-08-31T04:14:06.339Z,994.89
2017-08-31T04:15:16.684Z,994.88
2017-08-31T04:16:26.712Z,994.94
2017-08-31T04:17:36.734Z,994.97
2017-08-31T04:18:47.089Z,995.04
2017-08-31T04:19:57.432Z,995.02
2017-08-31T04:21:08.024Z,995.07
2017-08-31T04:22:17.744Z,995.02
2017-08-31T04:23:27.774Z,995.03
2017-08-31T04:24:37.799Z,995.02
2017-08-31T04:25:47.872Z,994.96
2017-08-31T04:26:58.215Z,995.01
2017-08-31T04:28:08.554Z,994.91
2017-08-31T04:29:18.889Z,994.93
2017-08-31T04:30:28.912Z,994.95
2017-08-31T04:31:41.303Z,994.99
2017-08-31T04:32:51.658Z,995.01
2017-08-31T04:34:01.683Z,995.14
2017-08-31T04:35:11.725Z,995.18
2017-08-31T04:36:21.801Z,995.25
2017-08-31T04:37:32.142Z,995.27
2017-08-31T04:38:42.486Z,995.31
2017-08-31T04:39:52.202Z,995.34
2017-08-31T04:41:02.228Z,995.3
2017-08-31T04:42:12.575Z,995.4
2017-08-31T04:43:22.912Z,995.43
2017-08-31T04:44:32.952Z,995.52
2017-08-31T04:45:43.291Z,995.59
2017-08-31T04:46:53.642Z,995.59
2017-08-31T04:48:04.078Z,995.6
2017-08-31T04:49:14.486Z,995.63
2017-08-31T04:50:24.522Z,995.68
2017-08-31T04:51:35.121Z,995.7
2017-08-31T04:52:45.528Z,995.74
2017-08-31T04:53:55.869Z,995.77
2017-08-31T04:55:06.221Z,995.82
2017-08-31T04:56:16.572Z,996
2017-08-31T04:57:26.925Z,996.17
2017-08-31T04:58:37.258Z,996.06
2017-08-31T04:59:47.592Z,995.96
2017-08-31T05:00:57.929Z,996.01
2017-08-31T05:02:09.552Z,995.99
2017-08-31T05:03:19.574Z,995.94
2017-08-31T05:04:31.110Z,995.98
2017-08-31T05:05:41.137Z,996.02
2017-08-31T05:06:51.478Z,996.05
2017-08-31T05:08:01.536Z,996.08
2017-08-31T05:09:11.914Z,996.04
2017-08-31T05:10:22.270Z,996.07
2017-08-31T05:11:32.641Z,996.06
2017-08-31T05:12:42.988Z,996.07
2017-08-31T05:13:53.329Z,996.09
2017-08-31T05:15:03.363Z,996.13
2017-08-31T05:16:13.751Z,996.12
2017-08-31T05:17:23.824Z,996.12
2017-08-31T05:18:34.170Z,996.13
2017-08-31T05:19:44.198Z,996.11
2017-08-31T05:20:54.544Z,996.15
2017-08-31T05:22:04.883Z,996.19
2017-08-31T05:23:15.224Z,996.22
2017-08-31T05:24:25.316Z,996.27
2017-08-31T05:25:35.345Z,996.14
2017-08-31T05:26:45.679Z,996.02
2017-08-31T05:27:55.387Z,995.99
2017-08-31T05:29:05.718Z,996.04
2017-08-31T05:30:15.763Z,996.02
2017-08-31T05:31:25.465Z,996.1
2017-08-31T05:32:35.482Z,996.06
2017-08-31T05:33:45.834Z,996.07
2017-08-31T05:34:56.175Z,996.08
2017-08-31T05:36:06.517Z,996.17
2017-08-31T05:37:16.559Z,996.28
2017-08-31T05:38:26.607Z,996.31
2017-08-31T05:39:36.967Z,996.31
2017-08-31T05:40:47.324Z,996.35
2017-08-31T05:41:57.682Z,996.23
2017-08-31T05:43:07.723Z,996.1
2017-08-31T05:44:17.758Z,996.02
2017-08-31T05:45:28.166Z,995.98
2017-08-31T05:46:39.574Z,995.98
2017-08-31T05:47:51.863Z,996.02
2017-08-31T05:49:02.211Z,996.19
2017-08-31T05:50:12.230Z,996.17
2017-08-31T05:51:22.643Z,996.15
2017-08-31T05:52:33.006Z,996.12
2017-08-31T05:53:43.054Z,996.12
2017-08-31T05:54:53.410Z,996.17
2017-08-31T05:56:03.762Z,996.21
2017-08-31T05:57:13.836Z,996.17
2017-08-31T05:58:24.185Z,996.17
2017-08-31T05:59:33.904Z,996.15
2017-08-31T06:00:44.290Z,996.17
2017-08-31T06:01:54.655Z,996.17
2017-08-31T06:03:05.003Z,996.22
2017-08-31T06:04:15.355Z,996.26
2017-08-31T06:05:25.386Z,996.22
2017-08-31T06:06:35.734Z,996.25
2017-08-31T06:07:46.081Z,996.15
2017-08-31T06:08:56.166Z,996.18
2017-08-31T06:10:07.126Z,996.17
2017-08-31T06:11:17.480Z,996.21
2017-08-31T06:12:27.201Z,996.18
2017-08-31T06:13:37.229Z,996.17
2017-08-31T06:14:47.270Z,996.15
2017-08-31T06:15:57.613Z,996.08
2017-08-31T06:17:07.950Z,996.15
2017-08-31T06:18:17.979Z,996.13
2017-08-31T06:19:29.738Z,996.08
2017-08-31T06:20:40.084Z,996.06
2017-08-31T06:21:50.433Z,996.04
2017-08-31T06:23:00.781Z,996.04
2017-08-31T06:24:10.814Z,995.99
2017-08-31T06:25:21.172Z,995.99
2017-08-31T06:26:31.202Z,996.01
2017-08-31T06:27:41.541Z,996.02
2017-08-31T06:28:51.565Z,995.99
2017-08-31T06:30:01.597Z,995.96
2017-08-31T06:31:11.629Z,995.96
2017-08-31T06:32:21.990Z,995.97
2017-08-31T06:33:32.331Z,996
2017-08-31T06:34:42.693Z,996.01
2017-08-31T06:35:53.038Z,996.08
2017-08-31T06:37:04.719Z,996.12
2017-08-31T06:38:15.056Z,996.16
2017-08-31T06:39:25.410Z,996.15
2017-08-31T06:40:35.755Z,996.15
2017-08-31T06:41:45.783Z,996.17
2017-08-31T06:42:56.132Z,996.19
2017-08-31T06:44:06.525Z,996.18
2017-08-31T06:45:16.890Z,996.23
2017-08-31T06:46:27.249Z,996.23
2017-08-31T06:47:37.595Z,996.28
2017-08-31T06:48:47.935Z,996.28
2017-08-31T06:50:01.387Z,996.27
2017-08-31T06:51:11.802Z,996.29
2017-08-31T06:52:22.150Z,996.32
2017-08-31T06:53:32.496Z,996.33
2017-08-31T06:54:42.850Z,996.29
2017-08-31T06:55:52.881Z,996.26
2017-08-31T06:57:02.910Z,996.18
2017-08-31T06:58:13.265Z,996.19
2017-08-31T06:59:23.958Z,996.15
2017-08-31T07:00:34.296Z,996.12
2017-08-31T07:01:44.686Z,996.14
2017-08-31T07:02:54.717Z,996.15
2017-08-31T07:04:04.454Z,996.14
2017-08-31T07:05:16.217Z,996.14
2017-08-31T07:06:27.071Z,996.11
2017-08-31T07:07:37.413Z,996.12
2017-08-31T07:08:47.448Z,996.14
2017-08-31T07:09:57.807Z,996.17
2017-08-31T07:11:08.147Z,996.18
2017-08-31T07:12:18.504Z,996.21
2017-08-31T07:13:28.856Z,996.2
2017-08-31T07:14:39.202Z,996.18
2017-08-31T07:15:48.905Z,996.14
2017-08-31T07:16:59.275Z,996.13
2017-08-31T07:18:09.625Z,996.19
2017-08-31T07:19:19.978Z,996.27
2017-08-31T07:20:29.687Z,996.33
2017-08-31T07:21:40.056Z,996.34
2017-08-31T07:22:50.423Z,996.41
2017-08-31T07:24:01.486Z,996.37
2017-08-31T07:25:11.878Z,996.37
2017-08-31T07:26:22.250Z,996.34
2017-08-31T07:27:32.616Z,996.37
2017-08-31T07:28:42.983Z,996.35
2017-08-31T07:29:53.105Z,996.32
2017-08-31T07:31:03.201Z,996.31
2017-08-31T07:32:13.551Z,996.32
2017-08-31T07:33:24.272Z,996.31
2017-08-31T07:34:34.648Z,996.28
2017-08-31T07:35:45.055Z,996.28
2017-08-31T07:36:55.141Z,996.28
2017-08-31T07:38:05.537Z,996.23
2017-08-31T07:39:15.886Z,996.26
2017-08-31T07:40:26.236Z,996.26
2017-08-31T07:41:36.258Z,996.18
2017-08-31T07:42:46.355Z,996.13
2017-08-31T07:43:56.716Z,996.14
2017-08-31T07:45:06.751Z,996.12
2017-08-31T07:46:17.115Z,996.13
2017-08-31T07:47:27.452Z,996.15
2017-08-31T07:48:37.807Z,996.14
2017-08-31T07:49:48.208Z,996.16
2017-08-31T07:50:57.931Z,996.17
2017-08-31T07:52:08.346Z,996.18
2017-08-31T07:53:18.736Z,996.16
2017-08-31T07:54:28.774Z,996.15
2017-08-31T07:55:39.151Z,996.1
2017-08-31T07:56:49.572Z,996.06
2017-08-31T07:57:59.617Z,996.08
2017-08-31T07:59:09.763Z,996.06
2017-08-31T08:00:20.123Z,996.06
2017-08-31T08:01:30.488Z,996.06
2017-08-31T08:02:40.526Z,996.03
2017-08-31T08:03:50.557Z,996.01
2017-08-31T08:05:00.910Z,996.05
2017-08-31T08:06:11.277Z,996.01
2017-08-31T08:07:21.636Z,996.08
2017-08-31T08:08:32.006Z,996.04
2017-08-31T08:09:42.378Z,996.07
2017-08-31T08:10:52.416Z,996.06
2017-08-31T08:12:02.787Z,996.11
2017-08-31T08:13:13.139Z,996.08
2017-08-31T08:14:23.492Z,996.1
2017-08-31T08:15:33.835Z,996.06
2017-08-31T08:16:43.988Z,996.05
2017-08-31T08:17:54.374Z,996.01
2017-08-31T08:19:04.731Z,996.12
2017-08-31T08:20:14.762Z,996.1
2017-08-31T08:21:25.099Z,996.04
2017-08-31T08:22:35.518Z,996.05
2017-08-31T08:23:45.582Z,996.09
2017-08-31T08:24:55.957Z,996.04
2017-08-31T08:26:05.702Z,996.04
2017-08-31T08:27:16.070Z,996.02
2017-08-31T08:28:25.854Z,996.07
2017-08-31T08:29:36.209Z,996.06
2017-08-31T08:30:46.573Z,996.06
2017-08-31T08:31:56.714Z,996.09
2017-08-31T08:33:07.077Z,996.1
2017-08-31T08:34:17.487Z,996.09
2017-08-31T08:35:28.402Z,996.11
2017-08-31T08:36:38.110Z,996.09
2017-08-31T08:37:48.480Z,996.1
2017-08-31T08:38:58.834Z,996.12
2017-08-31T08:40:09.246Z,996.12
2017-08-31T08:41:19.294Z,996.1
2017-08-31T08:42:29.662Z,996.13
2017-08-31T08:43:40.022Z,996.08
2017-08-31T08:44:50.408Z,996.07
2017-08-31T08:46:00.807Z,996.04
2017-08-31T08:47:11.174Z,996.02
2017-08-31T08:48:21.534Z,995.97
2017-08-31T08:49:31.907Z,995.94
2017-08-31T08:50:42.362Z,995.93
2017-08-31T08:51:52.735Z,995.92
2017-08-31T08:53:03.090Z,995.89
2017-08-31T08:54:13.463Z,995.93
2017-08-31T08:55:23.819Z,995.89
2017-08-31T08:56:34.170Z,995.94
2017-08-31T08:57:44.586Z,995.97
2017-08-31T08:58:54.611Z,996
2017-08-31T09:00:04.976Z,996.03
2017-08-31T09:01:15.024Z,996.04
2017-08-31T09:02:25.395Z,995.99
2017-08-31T09:03:35.772Z,996
2017-08-31T09:04:46.140Z,996.02
2017-08-31T09:05:56.506Z,996.04
2017-08-31T09:07:06.869Z,995.99
2017-08-31T09:08:17.244Z,996
2017-08-31T09:09:27.310Z,995.97
2017-08-31T09:10:37.672Z,995.97
2017-08-31T09:11:47.704Z,995.97
2017-08-31T09:12:58.100Z,995.95
2017-08-31T09:14:08.542Z,995.86
2017-08-31T09:15:18.900Z,995.87
2017-08-31T09:16:29.268Z,995.86
2017-08-31T09:17:39.324Z,995.85
2017-08-31T09:18:49.369Z,995.84
2017-08-31T09:19:59.777Z,995.86
2017-08-31T09:21:10.144Z,995.85
2017-08-31T09:22:20.765Z,995.86
2017-08-31T09:23:31.160Z,995.81
2017-08-31T09:24:41.519Z,995.85
2017-08-31T09:25:51.934Z,995.78
2017-08-31T09:27:02.321Z,995.8
2017-08-31T09:28:12.700Z,995.75
2017-08-31T09:29:23.069Z,995.81
2017-08-31T09:30:33.437Z,995.79
2017-08-31T09:31:43.881Z,995.77
2017-08-31T09:32:54.243Z,995.77
2017-08-31T09:34:04.588Z,995.77
2017-08-31T09:35:14.939Z,995.76
2017-08-31T09:36:25.311Z,995.77
2017-08-31T09:37:35.368Z,995.8
2017-08-31T09:38:45.731Z,995.78
2017-08-31T09:39:56.097Z,995.75
2017-08-31T09:41:06.474Z,995.78
2017-08-31T09:42:16.189Z,995.8
2017-08-31T09:43:26.556Z,995.8
2017-08-31T09:44:36.912Z,995.76
2017-08-31T09:45:47.266Z,995.76
2017-08-31T09:46:57.311Z,995.78
2017-08-31T09:48:07.374Z,995.73
2017-08-31T09:49:17.772Z,995.76
2017-08-31T09:50:28.145Z,995.7
2017-08-31T09:51:38.187Z,995.68
2017-08-31T09:52:48.221Z,995.7
2017-08-31T09:53:57.942Z,995.67
2017-08-31T09:55:08.484Z,995.65
2017-08-31T09:56:18.829Z,995.64
2017-08-31T09:57:29.218Z,995.6
2017-08-31T09:58:38.949Z,995.59
2017-08-31T09:59:49.315Z,995.53
2017-08-31T10:00:59.506Z,995.53
2017-08-31T10:02:09.865Z,995.47
2017-08-31T10:03:20.219Z,995.45
2017-08-31T10:04:30.597Z,995.43
2017-08-31T10:05:40.998Z,995.42
2017-08-31T10:06:51.085Z,995.42
2017-08-31T10:08:01.446Z,995.39
2017-08-31T10:09:11.832Z,995.39
2017-08-31T10:10:22.201Z,995.41
2017-08-31T10:11:32.560Z,995.42
2017-08-31T10:12:42.985Z,995.4
2017-08-31T10:13:52.714Z,995.38
2017-08-31T10:15:03.061Z,995.37
2017-08-31T10:16:13.132Z,995.4
2017-08-31T10:17:23.549Z,995.39
2017-08-31T10:18:33.982Z,995.39
2017-08-31T10:19:44.350Z,995.37
2017-08-31T10:20:54.736Z,995.37
2017-08-31T10:22:04.464Z,995.33
2017-08-31T10:23:14.826Z,995.33
2017-08-31T10:24:25.193Z,995.33
2017-08-31T10:25:35.576Z,995.35
2017-08-31T10:26:45.934Z,995.33
2017-08-31T10:27:56.287Z,995.33
2017-08-31T10:29:06.667Z,995.32
2017-08-31T10:30:16.746Z,995.36
2017-08-31T10:31:27.119Z,995.33
2017-08-31T10:32:37.467Z,995.37
2017-08-31T10:33:47.507Z,995.33
2017-08-31T10:34:57.590Z,995.32
2017-08-31T10:36:07.629Z,995.29
2017-08-31T10:37:17.996Z,995.27
2017-08-31T10:38:28.016Z,995.26
2017-08-31T10:39:38.392Z,995.23
2017-08-31T10:40:48.767Z,995.22
2017-08-31T10:41:59.177Z,995.2
2017-08-31T10:43:09.532Z,995.16
2017-08-31T10:44:19.899Z,995.14
2017-08-31T10:45:30.263Z,995.14
2017-08-31T10:46:40.613Z,995.15
2017-08-31T10:47:50.981Z,995.13
2017-08-31T10:49:01.344Z,995.11
2017-08-31T10:50:11.700Z,995.1
2017-08-31T10:51:22.081Z,995.1
2017-08-31T10:52:32.118Z,995.1
2017-08-31T10:53:42.211Z,995.07
2017-08-31T10:54:52.256Z,995.06
2017-08-31T10:56:02.669Z,995.07
2017-08-31T10:57:13.039Z,995
2017-08-31T10:58:23.312Z,995.01
2017-08-31T10:59:34.473Z,995.03
2017-08-31T11:00:44.827Z,994.98
2017-08-31T11:01:55.190Z,994.98
2017-08-31T11:03:05.550Z,994.96
2017-08-31T11:04:15.955Z,994.99
2017-08-31T11:05:26.339Z,994.98
2017-08-31T11:06:36.702Z,994.96
2017-08-31T11:07:47.040Z,994.98
2017-08-31T11:08:57.411Z,994.96
2017-08-31T11:10:07.453Z,994.96
2017-08-31T11:11:17.859Z,994.93
2017-08-31T11:12:28.214Z,994.88
2017-08-31T11:13:38.254Z,994.87
2017-08-31T11:14:48.626Z,994.85
2017-08-31T11:15:59.011Z,994.82
2017-08-31T11:17:08.783Z,994.82
2017-08-31T11:18:19.163Z,994.81
2017-08-31T11:19:29.514Z,994.8
2017-08-31T11:20:39.552Z,994.81
2017-08-31T11:21:49.906Z,994.82
2017-08-31T11:23:00.329Z,994.86
2017-08-31T11:24:10.690Z,994.84
2017-08-31T11:25:21.035Z,994.85
2017-08-31T11:26:31.096Z,994.84
2017-08-31T11:27:41.372Z,994.82
2017-08-31T11:28:52.289Z,994.82
2017-08-31T11:30:03.432Z,994.83
2017-08-31T11:31:14.398Z,994.82
2017-08-31T11:32:24.932Z,994.82
2017-08-31T11:33:35.874Z,994.79
2017-08-31T11:34:46.912Z,994.81
2017-08-31T11:35:57.785Z,994.86
2017-08-31T11:37:08.614Z,994.88
2017-08-31T11:38:21.090Z,994.83
2017-08-31T11:39:31.454Z,994.87
2017-08-31T11:40:41.857Z,994.82
2017-08-31T11:41:51.577Z,994.86
2017-08-31T11:43:01.966Z,994.91
2017-08-31T11:44:12.001Z,994.87
2017-08-31T11:45:22.350Z,994.89
2017-08-31T11:46:32.470Z,994.87
2017-08-31T11:47:42.852Z,994.86
2017-08-31T11:48:53.214Z,994.9
2017-08-31T11:50:03.284Z,994.89
2017-08-31T11:51:13.650Z,994.81
2017-08-31T11:52:24.078Z,994.84
2017-08-31T11:53:34.448Z,994.77
2017-08-31T11:54:44.811Z,994.82
2017-08-31T11:55:55.177Z,994.78
2017-08-31T11:57:05.526Z,994.76
2017-08-31T11:58:15.608Z,994.75
2017-08-31T11:59:25.963Z,994.72
2017-08-31T12:00:36.335Z,994.75
2017-08-31T12:01:46.703Z,994.75
2017-08-31T12:02:57.055Z,994.74
2017-08-31T12:04:07.906Z,994.73
2017-08-31T12:05:18.272Z,994.75
2017-08-31T12:06:28.609Z,994.73
2017-08-31T12:07:38.983Z,994.75
2017-08-31T12:08:48.727Z,994.72
2017-08-31T12:09:59.090Z,994.74
2017-08-31T12:11:09.451Z,994.68
2017-08-31T12:12:19.490Z,994.69
2017-08-31T12:13:29.576Z,994.67
2017-08-31T12:14:39.956Z,994.64
2017-08-31T12:15:50.333Z,994.63
2017-08-31T12:17:00.365Z,994.67
2017-08-31T12:18:10.068Z,994.67
2017-08-31T12:19:20.589Z,994.65
2017-08-31T12:20:31.280Z,994.59
2017-08-31T12:21:42.233Z,994.56
2017-08-31T12:22:52.318Z,994.54
2017-08-31T12:24:02.688Z,994.56
2017-08-31T12:25:13.086Z,994.52
2017-08-31T12:26:23.508Z,994.45
2017-08-31T12:27:33.621Z,994.46
2017-08-31T12:28:43.994Z,994.37
2017-08-31T12:29:54.350Z,994.42
2017-08-31T12:31:04.716Z,994.36
2017-08-31T12:32:15.178Z,994.37
2017-08-31T12:33:25.595Z,994.35
2017-08-31T12:34:36.217Z,994.35
2017-08-31T12:35:46.263Z,994.41
2017-08-31T12:36:56.652Z,994.39
2017-08-31T12:38:06.997Z,994.38
2017-08-31T12:39:16.866Z,994.4
2017-08-31T12:40:27.236Z,994.39
2017-08-31T12:41:36.957Z,994.42
2017-08-31T12:42:46.990Z,994.36
2017-08-31T12:43:57.372Z,994.36
2017-08-31T12:45:07.766Z,994.37
2017-08-31T12:46:17.797Z,994.33
2017-08-31T12:47:28.167Z,994.33
2017-08-31T12:48:37.907Z,994.34
2017-08-31T12:49:48.280Z,994.38
2017-08-31T12:50:58.638Z,994.34
2017-08-31T12:52:08.995Z,994.34
2017-08-31T12:53:18.745Z,994.29
2017-08-31T12:54:29.101Z,994.35
2017-08-31T12:55:39.513Z,994.26
2017-08-31T12:56:49.899Z,994.26
2017-08-31T12:58:00.267Z,994.25
2017-08-31T12:59:10.631Z,994.26
2017-08-31T13:00:21.011Z,994.23
2017-08-31T13:01:31.046Z,994.2
2017-08-31T13:02:41.484Z,994.25
2017-08-31T13:03:51.828Z,994.21
2017-08-31T13:05:02.229Z,994.19
2017-08-31T13:06:13.840Z,994.24
2017-08-31T13:07:24.252Z,994.19
2017-08-31T13:08:34.303Z,994.17
2017-08-31T13:09:44.692Z,994.19
2017-08-31T13:10:55.087Z,994.17
2017-08-31T13:12:05.454Z,994.16
2017-08-31T13:13:15.521Z,994.16
2017-08-31T13:14:26.920Z,994.19
2017-08-31T13:15:36.951Z,994.18
2017-08-31T13:16:47.307Z,994.15
2017-08-31T13:17:57.346Z,994.08
2017-08-31T13:19:07.406Z,994.14
2017-08-31T13:20:17.133Z,994.14
2017-08-31T13:21:27.486Z,994.16
2017-08-31T13:22:37.518Z,994.15
2017-08-31T13:23:47.589Z,994.22
2017-08-31T13:24:57.667Z,994.25
2017-08-31T13:26:08.038Z,994.21
2017-08-31T13:27:18.381Z,994.2
2017-08-31T13:28:28.763Z,994.29
2017-08-31T13:29:39.135Z,994.16
2017-08-31T13:30:49.544Z,994.2
2017-08-31T13:31:59.919Z,994.22
2017-08-31T13:33:10.281Z,994.13
2017-08-31T13:34:20.011Z,994.18
2017-08-31T13:35:31.299Z,994.16
2017-08-31T13:36:43.428Z,994.12
2017-08-31T13:37:53.780Z,994.14
2017-08-31T13:39:04.155Z,994.15
2017-08-31T13:40:14.193Z,994.16
2017-08-31T13:41:23.921Z,994.13
2017-08-31T13:42:33.985Z,994.12
2017-08-31T13:43:44.412Z,994.11
2017-08-31T13:44:54.754Z,994.1
2017-08-31T13:46:04.784Z,994.1
2017-08-31T13:47:15.149Z,994.11
2017-08-31T13:48:25.511Z,994.02
2017-08-31T13:49:35.891Z,994.04
2017-08-31T13:50:46.267Z,994.07
2017-08-31T13:51:56.641Z,994.07
2017-08-31T13:53:06.996Z,994.05
2017-08-31T13:54:18.127Z,994.05
2017-08-31T13:55:28.488Z,994
2017-08-31T13:56:38.623Z,993.94
2017-08-31T13:57:48.342Z,993.91
2017-08-31T13:58:58.726Z,993.94
2017-08-31T14:00:08.774Z,993.91
2017-08-31T14:01:19.299Z,993.86
2017-08-31T14:02:33.796Z,993.87
2017-08-31T14:03:53.178Z,993.85
2017-08-31T14:05:03.312Z,993.81
2017-08-31T14:06:13.811Z,993.76
2017-08-31T14:07:24.242Z,993.76
2017-08-31T14:08:34.126Z,993.75
2017-08-31T14:09:44.504Z,993.69
2017-08-31T14:10:54.983Z,993.67
2017-08-31T14:12:05.650Z,993.68
2017-08-31T14:13:15.825Z,993.64
2017-08-31T14:14:26.076Z,993.62
2017-08-31T14:15:36.105Z,993.61
2017-08-31T14:16:46.153Z,993.55
2017-08-31T14:17:56.188Z,993.56
2017-08-31T14:19:06.229Z,993.52
2017-08-31T14:20:16.269Z,993.48
2017-08-31T14:21:26.298Z,993.54
2017-08-31T14:22:36.335Z,993.5
2017-08-31T14:23:46.750Z,993.53
2017-08-31T14:24:56.806Z,993.53
2017-08-31T14:26:06.945Z,993.49
2017-08-31T14:27:17.306Z,993.48
2017-08-31T14:28:27.681Z,993.48
2017-08-31T14:29:38.169Z,993.51
2017-08-31T14:30:48.218Z,993.52
2017-08-31T14:31:58.614Z,993.45
2017-08-31T14:33:08.968Z,993.4
2017-08-31T14:34:19.037Z,993.44
2017-08-31T14:35:29.402Z,993.44
2017-08-31T14:36:39.762Z,993.4
2017-08-31T14:37:49.806Z,993.43
2017-08-31T14:38:59.845Z,993.43
2017-08-31T14:40:10.238Z,993.4
2017-08-31T14:41:20.660Z,993.35
2017-08-31T14:42:30.708Z,993.37
2017-08-31T14:43:40.752Z,993.34
2017-08-31T14:44:51.102Z,993.4
2017-08-31T14:46:01.489Z,993.37
2017-08-31T14:47:11.546Z,993.33
2017-08-31T14:48:21.590Z,993.32
2017-08-31T14:49:31.963Z,993.29
2017-08-31T14:50:42.817Z,993.28
2017-08-31T14:51:53.180Z,993.2
2017-08-31T14:53:03.541Z,993.23
2017-08-31T14:54:12.971Z,993.19
2017-08-31T14:55:22.380Z,993.15
2017-08-31T14:56:32.761Z,993.11
2017-08-31T14:57:43.128Z,993.13
2017-08-31T14:58:53.495Z,993.12
2017-08-31T15:00:03.900Z,993.12
2017-08-31T15:01:14.257Z,993.11
2017-08-31T15:02:24.619Z,993.15
2017-08-31T15:03:34.987Z,993.12
2017-08-31T15:04:45.354Z,993.12
2017-08-31T15:05:55.758Z,993.05
2017-08-31T15:07:05.842Z,993.06
2017-08-31T15:08:16.193Z,993.02
2017-08-31T15:09:26.577Z,992.96
2017-08-31T15:10:37.092Z,992.91
2017-08-31T15:11:47.518Z,992.89